createdAt,value
2019-02-23T00:01:15.568Z,17.05
2019-02-23T00:03:44.520Z,18.60
2019-02-23T00:06:13.435Z,18.02
2019-02-23T00:08:42.288Z,17.87
2019-02-23T00:11:11.340Z,17.50
2019-02-23T00:13:40.335Z,17.27
2019-02-23T00:16:09.451Z,17.02
2019-02-23T00:18:38.569Z,17.87
2019-02-23T00:21:07.817Z,17.10
2019-02-23T00:23:36.700Z,17.80
2019-02-23T00:26:05.564Z,17.27
2019-02-23T00:28:34.517Z,17.62
2019-02-23T00:31:04.693Z,17.48
2019-02-23T00:33:33.549Z,17.77
2019-02-23T00:36:02.392Z,17.75
2019-02-23T00:38:31.660Z,16.75
2019-02-23T00:41:00.860Z,17.90
2019-02-23T00:43:29.980Z,17.02
2019-02-23T00:45:58.936Z,17.42
2019-02-23T00:48:27.912Z,16.57
2019-02-23T00:50:56.832Z,16.90
2019-02-23T00:53:25.811Z,16.90
2019-02-23T00:55:54.752Z,17.40
2019-02-23T00:58:24.004Z,17.07
2019-02-23T01:00:52.961Z,16.80
2019-02-23T01:03:21.896Z,15.93
2019-02-23T01:05:50.764Z,15.70
2019-02-23T01:08:19.749Z,15.32
2019-02-23T01:10:57.805Z,15.18
2019-02-23T01:13:19.687Z,15.93
2019-02-23T01:15:48.648Z,16.05
2019-02-23T01:18:17.586Z,16.27
2019-02-23T01:20:46.497Z,16.75
2019-02-23T01:23:15.409Z,17.80
2019-02-23T01:25:44.412Z,18.20
2019-02-23T01:28:13.272Z,17.87
2019-02-23T01:30:42.340Z,17.82
2019-02-23T01:33:11.346Z,17.55
2019-02-23T01:35:40.275Z,18.57
2019-02-23T01:38:09.228Z,18.48
2019-02-23T01:40:38.556Z,18.00
2019-02-23T01:43:07.489Z,17.90
2019-02-23T01:45:42.419Z,18.57
2019-02-23T01:48:07.686Z,19.20
2019-02-23T01:50:36.591Z,19.32
2019-02-23T01:53:05.651Z,19.17
2019-02-23T01:55:34.884Z,19.15
2019-02-23T01:58:03.875Z,18.45
2019-02-23T02:00:33.456Z,18.57
2019-02-23T02:03:02.389Z,18.23
2019-02-23T02:05:31.330Z,18.05
2019-02-23T02:08:00.687Z,18.00
2019-02-23T02:10:30.171Z,17.70
2019-02-23T02:12:59.164Z,19.00
2019-02-23T02:15:28.236Z,18.05
2019-02-23T02:17:57.263Z,17.92
2019-02-23T02:20:26.112Z,17.60
2019-02-23T02:22:55.004Z,18.83
2019-02-23T02:25:24.019Z,18.55
2019-02-23T02:27:53.024Z,18.15
2019-02-23T02:30:22.588Z,18.27
2019-02-23T02:32:51.908Z,17.92
2019-02-23T02:35:20.858Z,18.25
2019-02-23T02:37:50.187Z,17.42
2019-02-23T02:40:19.235Z,17.75
2019-02-23T02:42:48.148Z,17.67
2019-02-23T02:45:17.202Z,18.15
2019-02-23T02:47:46.143Z,18.20
2019-02-23T02:50:23.725Z,18.30
2019-02-23T02:52:45.682Z,17.65
2019-02-23T02:55:14.544Z,17.40
2019-02-23T02:57:43.750Z,17.92
2019-02-23T03:00:13.388Z,17.03
2019-02-23T03:02:42.316Z,17.50
2019-02-23T03:05:11.306Z,17.90
2019-02-23T03:07:40.392Z,18.05
2019-02-23T03:10:09.380Z,17.52
2019-02-23T03:12:38.238Z,18.00
2019-02-23T03:15:07.672Z,17.60
2019-02-23T03:17:36.594Z,17.20
2019-02-23T03:20:06.649Z,18.05
2019-02-23T03:22:35.540Z,18.07
2019-02-23T03:25:04.764Z,17.60
2019-02-23T03:27:34.104Z,17.45
2019-02-23T03:30:03.017Z,17.87
2019-02-23T03:32:33.562Z,17.62
2019-02-23T03:35:02.436Z,17.23
2019-02-23T03:37:31.395Z,17.70
2019-02-23T03:40:00.398Z,18.10
2019-02-23T03:42:29.540Z,17.73
2019-02-23T03:44:58.444Z,17.45
2019-02-23T03:47:27.449Z,17.48
2019-02-23T03:49:56.623Z,17.77
2019-02-23T03:52:25.664Z,17.30
2019-02-23T03:54:54.514Z,18.23
2019-02-23T03:57:23.497Z,18.13
2019-02-23T03:59:52.526Z,17.45
2019-02-23T04:02:21.376Z,17.70
2019-02-23T04:04:50.311Z,17.55
2019-02-23T04:07:19.268Z,18.12
2019-02-23T04:09:48.289Z,18.17
2019-02-23T04:12:17.186Z,18.30
2019-02-23T04:14:46.966Z,18.65
2019-02-23T04:17:15.892Z,17.92
2019-02-23T04:19:45.093Z,18.23
2019-02-23T04:22:14.210Z,18.37
2019-02-23T04:24:43.418Z,18.27
2019-02-23T04:27:12.572Z,18.85
2019-02-23T04:29:41.453Z,18.23
2019-02-23T04:32:10.427Z,18.85
2019-02-23T04:34:39.296Z,18.40
2019-02-23T04:37:08.349Z,18.07
2019-02-23T04:39:37.530Z,18.55
2019-02-23T04:42:06.538Z,18.27
2019-02-23T04:44:35.584Z,18.02
2019-02-23T04:47:04.576Z,18.55
2019-02-23T04:49:33.530Z,18.80
2019-02-23T04:52:02.780Z,18.48
2019-02-23T04:54:37.412Z,18.77
2019-02-23T04:57:06.267Z,19.45
2019-02-23T04:59:35.107Z,19.05
2019-02-23T05:02:04.136Z,19.23
2019-02-23T05:04:33.132Z,19.10
2019-02-23T05:07:04.317Z,19.15
2019-02-23T05:09:33.312Z,18.45
2019-02-23T05:12:02.352Z,19.17
2019-02-23T05:14:31.240Z,20.43
2019-02-23T05:17:00.813Z,19.85
2019-02-23T05:19:29.736Z,20.08
2019-02-23T05:21:58.704Z,20.62
2019-02-23T05:24:27.798Z,20.37
2019-02-23T05:26:56.685Z,19.82
2019-02-23T05:29:25.544Z,19.73
2019-02-23T05:31:54.556Z,20.27
2019-02-23T05:34:23.446Z,19.55
2019-02-23T05:36:52.373Z,19.57
2019-02-23T05:39:21.260Z,20.17
2019-02-23T05:41:50.212Z,19.60
2019-02-23T05:44:19.182Z,20.08
2019-02-23T05:46:48.104Z,20.70
2019-02-23T05:49:16.991Z,20.35
2019-02-23T05:51:45.882Z,21.20
2019-02-23T05:54:14.780Z,20.57
2019-02-23T05:56:43.724Z,20.32
2019-02-23T05:59:12.639Z,19.55
2019-02-23T06:01:41.496Z,20.20
2019-02-23T06:04:10.482Z,20.52
2019-02-23T06:06:39.395Z,20.70
2019-02-23T06:09:08.266Z,19.67
2019-02-23T06:11:37.207Z,21.07
2019-02-23T06:14:06.321Z,20.30
2019-02-23T06:16:35.240Z,20.10
2019-02-23T06:19:04.157Z,19.98
2019-02-23T06:21:33.103Z,20.85
2019-02-23T06:24:02.058Z,21.20
2019-02-23T06:26:30.973Z,21.23
2019-02-23T06:28:59.941Z,20.90
2019-02-23T06:31:29.153Z,20.12
2019-02-23T06:33:58.208Z,21.07
2019-02-23T06:36:27.142Z,21.10
2019-02-23T06:38:56.072Z,21.70
2019-02-23T06:41:25.117Z,21.00
2019-02-23T06:43:54.029Z,22.10
2019-02-23T06:46:23.068Z,21.12
2019-02-23T06:48:51.915Z,21.02
2019-02-23T06:51:20.780Z,21.27
2019-02-23T06:53:49.706Z,21.33
2019-02-23T06:56:18.704Z,19.27
2019-02-23T06:58:47.652Z,20.23
2019-02-23T07:01:16.622Z,20.12
2019-02-23T07:03:45.748Z,20.20
2019-02-23T07:06:14.620Z,20.57
2019-02-23T07:08:43.464Z,19.67
2019-02-23T07:11:13.453Z,20.25
2019-02-23T07:13:42.330Z,19.05
2019-02-23T07:16:11.171Z,20.12
2019-02-23T07:18:40.957Z,20.02
2019-02-23T07:21:09.901Z,18.50
2019-02-23T07:23:38.956Z,19.90
2019-02-23T07:26:07.968Z,19.75
2019-02-23T07:28:36.852Z,19.62
2019-02-23T07:31:05.812Z,18.37
2019-02-23T07:33:34.649Z,19.62
2019-02-23T07:36:03.621Z,18.50
2019-02-23T07:38:35.449Z,17.77
2019-02-23T07:41:03.492Z,17.40
2019-02-23T07:43:32.371Z,18.00
2019-02-23T07:46:01.269Z,16.67
2019-02-23T07:48:30.235Z,17.05
2019-02-23T07:50:59.144Z,16.52
2019-02-23T07:53:28.160Z,16.55
2019-02-23T07:55:57.180Z,16.35
2019-02-23T07:58:26.107Z,15.70
2019-02-23T08:00:55.005Z,16.25
2019-02-23T08:03:24.015Z,15.58
2019-02-23T08:05:52.869Z,15.18
2019-02-23T08:08:21.739Z,16.00
2019-02-23T08:10:51.074Z,15.35
2019-02-23T08:13:19.964Z,14.83
2019-02-23T08:15:48.824Z,14.40
2019-02-23T08:18:17.732Z,14.60
2019-02-23T08:20:46.711Z,15.08
2019-02-23T08:23:16.080Z,14.80
2019-02-23T08:25:45.005Z,13.58
2019-02-23T08:28:13.863Z,13.50
2019-02-23T08:30:42.728Z,13.48
2019-02-23T08:33:11.607Z,12.90
2019-02-23T08:35:40.547Z,13.40
2019-02-23T08:38:09.468Z,12.70
2019-02-23T08:40:38.671Z,12.70
2019-02-23T08:43:07.841Z,12.63
2019-02-23T08:45:36.784Z,12.88
2019-02-23T08:48:05.868Z,12.55
2019-02-23T08:50:34.992Z,12.82
2019-02-23T08:53:04.285Z,13.00
2019-02-23T08:55:33.300Z,13.43
2019-02-23T08:58:02.244Z,12.10
2019-02-23T09:00:31.224Z,12.70
2019-02-23T09:03:00.175Z,12.68
2019-02-23T09:05:29.116Z,11.88
2019-02-23T09:07:57.944Z,12.18
2019-02-23T09:10:26.836Z,11.90
2019-02-23T09:12:55.780Z,12.25
2019-02-23T09:15:24.729Z,12.13
2019-02-23T09:17:53.948Z,12.40
2019-02-23T09:20:29.287Z,12.23
2019-02-23T09:23:00.277Z,12.40
2019-02-23T09:25:24.519Z,12.05
2019-02-23T09:27:53.440Z,11.83
2019-02-23T09:30:22.349Z,11.30
2019-02-23T09:32:51.232Z,11.28
2019-02-23T09:35:20.209Z,11.03
2019-02-23T09:37:49.120Z,10.03
2019-02-23T09:40:18.311Z,9.83
2019-02-23T09:42:47.620Z,9.80
2019-02-23T09:45:16.606Z,9.48
2019-02-23T09:47:45.557Z,9.20
2019-02-23T09:50:14.592Z,8.75
2019-02-23T09:52:43.512Z,8.88
2019-02-23T09:55:12.548Z,6.90
2019-02-23T09:57:41.472Z,7.37
2019-02-23T10:00:10.891Z,7.20
2019-02-23T10:02:39.975Z,6.62
2019-02-23T10:05:09.617Z,6.10
2019-02-23T10:07:38.551Z,6.42
2019-02-23T10:10:08.105Z,6.10
2019-02-23T10:12:37.141Z,5.77
2019-02-23T10:15:06.489Z,5.53
2019-02-23T10:17:35.524Z,5.78
2019-02-23T10:20:04.817Z,5.67
2019-02-23T10:22:33.808Z,5.10
2019-02-23T10:25:02.759Z,4.80
2019-02-23T10:27:31.960Z,4.70
2019-02-23T10:30:00.805Z,4.70
2019-02-23T10:32:29.832Z,4.70
2019-02-23T10:34:59.084Z,4.90
2019-02-23T10:37:28.116Z,4.78
2019-02-23T10:39:57.140Z,4.70
2019-02-23T10:42:26.000Z,4.77
2019-02-23T10:44:55.340Z,4.50
2019-02-23T10:47:24.383Z,4.72
2019-02-23T10:49:53.320Z,4.40
2019-02-23T10:52:22.356Z,4.37
2019-02-23T10:54:51.349Z,4.13
2019-02-23T10:57:20.374Z,4.47
2019-02-23T10:59:49.212Z,4.30
2019-02-23T11:02:18.254Z,4.50
2019-02-23T11:04:47.413Z,4.00
2019-02-23T11:07:17.129Z,4.30
2019-02-23T11:09:46.145Z,4.25
2019-02-23T11:12:15.095Z,4.22
2019-02-23T11:14:44.015Z,4.17
2019-02-23T11:17:13.033Z,4.42
2019-02-23T11:19:42.319Z,4.50
2019-02-23T11:22:12.019Z,4.47
2019-02-23T11:24:41.039Z,4.60
2019-02-23T11:27:10.016Z,4.80
2019-02-23T11:29:39.061Z,4.58
2019-02-23T11:32:08.050Z,4.40
2019-02-23T11:34:36.929Z,4.17
2019-02-23T11:37:05.896Z,3.87
2019-02-23T11:39:34.872Z,3.70
2019-02-23T11:42:03.825Z,4.15
2019-02-23T11:44:32.701Z,4.33
2019-02-23T11:47:01.624Z,4.22
2019-02-23T11:49:30.547Z,4.33
2019-02-23T11:51:59.463Z,4.00
2019-02-23T11:54:28.387Z,3.77
2019-02-23T11:56:57.241Z,3.72
2019-02-23T11:59:26.163Z,3.40
2019-02-23T12:01:55.159Z,3.30
2019-02-23T12:04:24.013Z,3.30
2019-02-23T12:06:52.945Z,3.20
2019-02-23T12:09:21.881Z,3.10
2019-02-23T12:11:50.712Z,3.30
2019-02-23T12:14:19.633Z,2.90
2019-02-23T12:16:48.556Z,3.17
2019-02-23T12:19:17.446Z,3.00
2019-02-23T12:21:46.708Z,3.00
2019-02-23T12:24:15.564Z,2.77
2019-02-23T12:26:44.413Z,2.80
2019-02-23T12:29:13.244Z,2.72
2019-02-23T12:31:42.503Z,2.60
2019-02-23T12:34:11.325Z,2.80
2019-02-23T12:36:40.155Z,2.80
2019-02-23T12:39:09.008Z,2.80
2019-02-23T12:41:37.848Z,3.00
2019-02-23T12:44:06.844Z,2.80
2019-02-23T12:46:35.783Z,3.05
2019-02-23T12:49:04.747Z,2.80
2019-02-23T12:51:33.744Z,3.02
2019-02-23T12:54:02.720Z,3.05
2019-02-23T12:56:32.093Z,3.10
2019-02-23T12:59:01.168Z,2.90
2019-02-23T13:01:30.322Z,3.10
2019-02-23T13:03:59.225Z,3.12
2019-02-23T13:06:28.245Z,3.15
2019-02-23T13:09:26.131Z,3.02
2019-02-23T13:12:14.445Z,3.00
2019-02-23T13:15:00.711Z,3.00
2019-02-23T13:18:12.336Z,3.15
2019-02-23T13:21:37.697Z,3.25
2019-02-23T13:24:33.701Z,3.40
2019-02-23T13:27:55.804Z,3.17
2019-02-23T13:30:50.557Z,3.10
2019-02-23T13:33:54.820Z,3.20
2019-02-23T13:37:06.868Z,3.30
2019-02-23T13:40:07.608Z,3.35
2019-02-23T13:43:05.698Z,3.20
2019-02-23T13:46:05.818Z,3.52
2019-02-23T13:49:37.208Z,3.30
2019-02-23T13:52:53.160Z,3.52
2019-02-23T13:55:58.520Z,3.37
2019-02-23T13:58:54.139Z,3.50
2019-02-23T14:01:45.968Z,3.50
2019-02-23T14:04:59.300Z,3.52
2019-02-23T14:08:11.163Z,3.80
2019-02-23T14:11:48.858Z,4.60
2019-02-23T14:14:33.240Z,4.50
2019-02-23T14:17:31.420Z,4.42
2019-02-23T14:20:37.543Z,4.10
2019-02-23T14:23:18.951Z,3.92
2019-02-23T14:26:33.136Z,3.77
2019-02-23T14:29:33.110Z,3.85
2019-02-23T14:32:37.304Z,3.90
2019-02-23T14:35:24.624Z,3.72
2019-02-23T14:38:21.252Z,4.10
2019-02-23T14:41:28.548Z,3.75
2019-02-23T14:44:27.734Z,3.85
2019-02-23T14:47:20.868Z,3.75
2019-02-23T14:50:14.375Z,3.92
2019-02-23T14:53:02.857Z,4.50
2019-02-23T14:56:08.051Z,3.83
2019-02-23T14:59:42.468Z,3.90
2019-02-23T15:02:52.524Z,3.67
2019-02-23T15:05:50.181Z,3.60
2019-02-23T15:08:50.847Z,3.37
2019-02-23T15:11:59.136Z,3.43
2019-02-23T15:14:57.776Z,3.22
2019-02-23T15:18:16.284Z,3.33
2019-02-23T15:21:10.395Z,3.50
2019-02-23T15:24:17.950Z,3.13
2019-02-23T15:27:43.259Z,3.33
2019-02-23T15:30:36.917Z,3.20
2019-02-23T15:33:48.780Z,3.37
2019-02-23T15:36:46.287Z,3.00
2019-02-23T15:40:10.807Z,3.40
2019-02-23T15:43:30.266Z,3.17
2019-02-23T15:46:42.111Z,3.20
2019-02-23T15:49:29.765Z,3.00
2019-02-23T15:51:59.578Z,3.20
2019-02-23T15:54:29.332Z,3.00
2019-02-23T15:56:58.464Z,2.73
2019-02-23T15:59:27.513Z,2.95
2019-02-23T16:01:56.521Z,2.92
2019-02-23T16:04:25.457Z,2.83
2019-02-23T16:06:54.738Z,3.00
2019-02-23T16:09:23.643Z,3.10
2019-02-23T16:11:52.592Z,3.08
2019-02-23T16:14:21.467Z,2.90
2019-02-23T16:16:50.444Z,3.05
2019-02-23T16:19:19.501Z,3.30
2019-02-23T16:21:48.436Z,2.98
2019-02-23T16:24:17.395Z,3.12
2019-02-23T16:26:46.398Z,2.80
2019-02-23T16:29:19.699Z,2.95
2019-02-23T16:31:48.648Z,3.40
2019-02-23T16:34:17.811Z,3.40
2019-02-23T16:36:46.721Z,3.72
2019-02-23T16:39:15.868Z,3.70
2019-02-23T16:41:44.928Z,3.50
2019-02-23T16:44:13.900Z,3.60
2019-02-23T16:46:46.177Z,4.00
2019-02-23T16:49:13.516Z,4.00
2019-02-23T16:51:42.450Z,3.72
2019-02-23T16:54:11.399Z,3.98
2019-02-23T16:56:40.418Z,4.10
2019-02-23T16:59:09.339Z,4.10
2019-02-23T17:01:38.220Z,4.20
2019-02-23T17:04:07.157Z,4.37
2019-02-23T17:06:36.408Z,4.30
2019-02-23T17:09:06.443Z,4.17
2019-02-23T17:11:35.376Z,4.40
2019-02-23T17:14:04.424Z,4.67
2019-02-23T17:16:33.432Z,4.60
2019-02-23T17:19:02.291Z,4.70
2019-02-23T17:21:31.220Z,5.08
2019-02-23T17:24:00.141Z,4.78
2019-02-23T17:26:29.283Z,5.33
2019-02-23T17:29:00.117Z,5.22
2019-02-23T17:31:29.077Z,5.37
2019-02-23T17:33:58.049Z,5.20
2019-02-23T17:36:27.004Z,5.20
2019-02-23T17:38:55.955Z,5.00
2019-02-23T17:41:25.280Z,4.83
2019-02-23T17:43:54.311Z,4.47
2019-02-23T17:46:23.292Z,4.80
2019-02-23T17:48:52.222Z,4.65
2019-02-23T17:51:21.112Z,5.00
2019-02-23T17:53:50.022Z,5.35
2019-02-23T17:56:18.866Z,5.75
2019-02-23T17:58:47.846Z,5.22
2019-02-23T18:01:16.688Z,4.80
2019-02-23T18:03:45.560Z,5.00
2019-02-23T18:06:14.548Z,4.28
2019-02-23T18:08:43.399Z,4.37
2019-02-23T18:11:12.247Z,4.53
2019-02-23T18:13:41.235Z,5.28
2019-02-23T18:16:10.101Z,5.53
2019-02-23T18:18:39.289Z,5.87
2019-02-23T18:21:08.292Z,5.50
2019-02-23T18:23:37.393Z,4.80
2019-02-23T18:26:06.395Z,4.78
2019-02-23T18:28:35.462Z,4.80
2019-02-23T18:31:04.404Z,4.90
2019-02-23T18:33:33.287Z,5.90
2019-02-23T18:36:02.157Z,5.65
2019-02-23T18:38:31.036Z,5.70
2019-02-23T18:40:59.897Z,5.45
2019-02-23T18:43:28.804Z,4.78
2019-02-23T18:45:58.103Z,4.97
2019-02-23T18:48:27.131Z,5.12
2019-02-23T18:50:56.049Z,4.80
2019-02-23T18:53:25.012Z,5.03
2019-02-23T18:55:53.980Z,5.15
2019-02-23T18:58:22.937Z,5.43
2019-02-23T19:00:51.904Z,5.85
2019-02-23T19:03:20.868Z,6.08
2019-02-23T19:05:50.282Z,6.15
2019-02-23T19:08:19.287Z,7.20
2019-02-23T19:10:48.284Z,7.22
2019-02-23T19:13:17.392Z,7.22
2019-02-23T19:15:46.452Z,7.12
2019-02-23T19:18:15.329Z,7.33
2019-02-23T19:20:46.403Z,7.50
2019-02-23T19:23:15.547Z,7.60
2019-02-23T19:25:44.556Z,7.30
2019-02-23T19:28:13.955Z,6.80
2019-02-23T19:30:42.905Z,6.80
2019-02-23T19:33:11.845Z,6.17
2019-02-23T19:35:40.917Z,6.53
2019-02-23T19:38:10.045Z,6.87
2019-02-23T19:40:38.904Z,6.87
2019-02-23T19:43:08.508Z,8.33
2019-02-23T19:45:37.961Z,8.55
2019-02-23T19:48:06.831Z,7.90
2019-02-23T19:50:39.257Z,6.72
2019-02-23T19:53:08.273Z,6.72
2019-02-23T19:55:37.525Z,6.70
2019-02-23T19:58:06.489Z,6.58
2019-02-23T20:00:35.404Z,7.03
2019-02-23T20:03:04.675Z,7.22
2019-02-23T20:05:33.659Z,6.60
2019-02-23T20:08:02.696Z,7.08
2019-02-23T20:10:31.596Z,7.17
2019-02-23T20:13:00.454Z,6.47
2019-02-23T20:15:29.420Z,6.75
2019-02-23T20:17:58.725Z,6.50
2019-02-23T20:20:27.674Z,6.75
2019-02-23T20:22:56.704Z,6.62
2019-02-23T20:25:25.783Z,6.55
2019-02-23T20:27:54.862Z,5.60
2019-02-23T20:30:23.785Z,6.08
2019-02-23T20:32:52.639Z,6.12
2019-02-23T20:35:21.710Z,6.53
2019-02-23T20:37:50.594Z,6.42
2019-02-23T20:40:19.508Z,6.63
2019-02-23T20:42:48.355Z,7.42
2019-02-23T20:45:17.305Z,7.50
2019-02-23T20:47:46.359Z,8.33
2019-02-23T20:50:15.367Z,7.42
2019-02-23T20:52:44.239Z,7.70
2019-02-23T20:55:13.399Z,7.60
2019-02-23T20:57:42.292Z,7.25
2019-02-23T21:00:11.353Z,7.12
2019-02-23T21:02:40.433Z,7.45
2019-02-23T21:05:09.820Z,7.30
2019-02-23T21:07:40.077Z,7.70
2019-02-23T21:10:09.177Z,7.60
2019-02-23T21:12:38.160Z,7.40
2019-02-23T21:15:08.712Z,7.20
2019-02-23T21:17:37.797Z,7.58
2019-02-23T21:20:08.347Z,7.03
2019-02-23T21:22:40.293Z,7.15
2019-02-23T21:25:09.823Z,7.13
2019-02-23T21:27:38.756Z,7.15
2019-02-23T21:30:08.276Z,6.85
2019-02-23T21:32:37.276Z,7.70
2019-02-23T21:35:06.205Z,7.60
2019-02-23T21:37:35.080Z,7.92
2019-02-23T21:40:04.147Z,7.55
2019-02-23T21:42:33.407Z,7.87
2019-02-23T21:45:02.365Z,7.33
2019-02-23T21:47:31.297Z,6.72
2019-02-23T21:50:00.333Z,6.65
2019-02-23T21:52:29.364Z,6.60
2019-02-23T21:54:58.437Z,6.40
2019-02-23T21:57:27.441Z,6.67
2019-02-23T21:59:57.302Z,6.45
2019-02-23T22:02:26.365Z,6.50
2019-02-23T22:04:55.299Z,6.12
2019-02-23T22:07:24.226Z,5.97
2019-02-23T22:09:53.266Z,6.40
2019-02-23T22:12:22.266Z,6.10
2019-02-23T22:14:51.473Z,6.03
2019-02-23T22:17:20.401Z,5.37
2019-02-23T22:19:49.407Z,5.85
2019-02-23T22:22:18.483Z,5.50
2019-02-23T22:24:47.404Z,5.67
2019-02-23T22:27:16.350Z,5.65
2019-02-23T22:29:45.624Z,6.37
2019-02-23T22:32:14.666Z,6.35
2019-02-23T22:34:43.528Z,6.33
2019-02-23T22:37:12.546Z,6.10
2019-02-23T22:39:41.530Z,6.03
2019-02-23T22:42:10.517Z,6.00
2019-02-23T22:44:39.544Z,6.20
2019-02-23T22:47:08.517Z,6.40
2019-02-23T22:49:37.532Z,6.40
2019-02-23T22:52:06.540Z,7.15
2019-02-23T22:54:35.388Z,7.20
2019-02-23T22:57:04.494Z,7.60
2019-02-23T22:59:34.661Z,7.50
2019-02-23T23:02:03.756Z,6.60
2019-02-23T23:04:33.101Z,5.97
2019-02-23T23:07:02.097Z,5.20
2019-02-23T23:09:30.948Z,5.33
2019-02-23T23:12:00.032Z,5.12
2019-02-23T23:14:28.944Z,5.37
2019-02-23T23:16:57.963Z,5.45
2019-02-23T23:19:26.877Z,5.58
2019-02-23T23:21:56.084Z,5.55
2019-02-23T23:24:25.062Z,6.00
2019-02-23T23:26:53.994Z,5.78
2019-02-23T23:29:22.940Z,5.47
2019-02-23T23:31:51.941Z,5.50
2019-02-23T23:34:20.904Z,5.90
2019-02-23T23:36:49.868Z,5.50
2019-02-23T23:39:18.799Z,6.00
2019-02-23T23:41:47.795Z,6.15
2019-02-23T23:44:16.972Z,6.05
2019-02-23T23:46:45.904Z,5.72
2019-02-23T23:49:14.812Z,6.10
2019-02-23T23:51:43.676Z,6.20
2019-02-23T23:54:12.656Z,6.00
2019-02-23T23:56:41.528Z,5.95
2019-02-23T23:59:10.366Z,6.08
